Time;durP1;ratioP1;P1;durP2;ratioP2;P2;SDS_P1;SDS_P2;PMS_P1;PMS_P2;Temp;Humidity;BMP_temperature;BMP_pressure;BME280_temperature;BME280_humidity;BME280_pressure;Samples;Min_cycle;Max_cycle;Signal;HPM_P1;HPM_P2
2023/03/17 00:00:46;;;;;;;3.60;2.10;;;;;;;17.87;33.09;100322.79;108203;1254;62070;-66
2023/03/17 00:03:25;;;;;;;4.50;1.90;;;;;;;17.38;33.82;100328.39;108220;1254;61311;-66
2023/03/17 00:05:54;;;;;;;3.60;2.10;;;;;;;17.24;34.02;100328.54;108096;1253;74292;-66
2023/03/17 00:08:23;;;;;;;5.60;2.30;;;;;;;17.35;33.97;100331.23;108038;1257;69665;-65
2023/03/17 00:10:54;;;;;;;3.10;2.20;;;;;;;17.29;33.96;100329.10;108140;1255;73912;-65
2023/03/17 00:13:22;;;;;;;5.40;2.50;;;;;;;17.17;34.13;100329.82;108239;1254;59663;-64
2023/03/17 00:15:53;;;;;;;4.70;2.20;;;;;;;17.19;34.09;100331.67;108242;1253;61546;-66
2023/03/17 00:18:29;;;;;;;3.80;2.00;;;;;;;17.30;33.93;100336.83;108247;1252;74225;-65
2023/03/17 00:21:04;;;;;;;5.30;1.80;;;;;;;17.47;33.83;100337.95;108172;1255;71587;-66
2023/03/17 00:23:34;;;;;;;4.40;2.00;;;;;;;17.46;33.79;100337.80;107958;1253;72876;-66
2023/03/17 00:26:02;;;;;;;4.30;2.10;;;;;;;17.29;33.95;100338.10;108164;1254;61997;-66
2023/03/17 00:28:33;;;;;;;3.40;1.90;;;;;;;17.61;33.31;100341.32;108269;1251;61347;-64
2023/03/17 00:31:10;;;;;;;3.00;1.60;;;;;;;17.80;33.04;100335.48;108096;1256;73415;-63
2023/03/17 00:33:39;;;;;;;3.90;2.00;;;;;;;18.21;32.55;100337.63;108018;1251;71245;-64
2023/03/17 00:36:09;;;;;;;3.10;2.00;;;;;;;18.45;32.22;100337.18;108047;1251;72805;-67
2023/03/17 00:38:38;;;;;;;3.30;1.90;;;;;;;18.62;31.87;100341.30;108070;1251;61231;-65
2023/03/17 00:41:08;;;;;;;8.80;2.30;;;;;;;18.48;31.99;100338.54;108333;1251;61494;-66
2023/03/17 00:43:39;;;;;;;1.90;1.50;;;;;;;18.25;32.21;100342.02;108278;1251;72005;-65
2023/03/17 00:46:34;;;;;;;3.10;1.90;;;;;;;18.40;32.01;100341.23;108218;1251;71548;-65
2023/03/17 00:49:21;;;;;;;2.60;2.00;;;;;;;18.38;31.89;100341.14;108292;1251;72696;-65
2023/03/17 00:51:50;;;;;;;2.40;1.90;;;;;;;18.11;32.08;100347.72;108203;1256;61747;-65
2023/03/17 00:54:19;;;;;;;6.10;2.10;;;;;;;17.99;32.26;100350.44;108266;1251;60470;-66
2023/03/17 00:56:48;;;;;;;6.90;2.20;;;;;;;18.22;31.99;100350.91;108344;1251;73213;-66
2023/03/17 00:59:20;;;;;;;4.70;1.80;;;;;;;18.01;32.12;100347.34;108380;1251;69539;-66
2023/03/17 01:01:49;;;;;;;3.00;1.90;;;;;;;18.29;31.72;100346.36;108201;1251;71966;-65
2023/03/17 01:04:18;;;;;;;3.70;2.10;;;;;;;18.12;31.98;100349.11;108207;1251;60751;-66
2023/03/17 01:06:47;;;;;;;2.80;1.80;;;;;;;18.22;31.88;100344.68;108339;1251;60047;-67
2023/03/17 01:09:17;;;;;;;2.70;1.50;;;;;;;18.32;31.77;100346.75;108336;1251;74471;-65
2023/03/17 01:11:45;;;;;;;5.80;2.60;;;;;;;18.26;31.69;100342.67;108267;1251;70226;-67
2023/03/17 01:14:15;;;;;;;5.10;1.80;;;;;;;18.30;31.64;100348.12;108288;1256;73015;-65
2023/03/17 01:16:44;;;;;;;4.60;1.70;;;;;;;18.23;31.68;100350.15;108205;1251;62462;-64
2023/03/17 01:19:12;;;;;;;6.10;2.00;;;;;;;18.07;31.71;100353.88;108316;1251;61384;-66
2023/03/17 01:21:41;;;;;;;2.40;1.90;;;;;;;18.07;31.71;100352.75;108063;1251;74233;-62
2023/03/17 01:24:11;;;;;;;4.10;2.10;;;;;;;18.23;31.54;100351.02;108313;1251;69530;-65
2023/03/17 01:26:40;;;;;;;4.10;1.90;;;;;;;18.34;31.33;100352.41;108149;1251;74080;-65
2023/03/17 01:29:08;;;;;;;3.90;1.70;;;;;;;18.06;31.63;100355.67;108227;1251;62155;-66
2023/03/17 01:31:36;;;;;;;7.50;1.90;;;;;;;18.20;31.47;100357.28;108264;1251;60224;-65
2023/03/17 01:34:08;;;;;;;3.70;1.60;;;;;;;18.13;31.58;100360.39;108250;1252;73954;-66
2023/03/17 01:36:37;;;;;;;6.20;2.10;;;;;;;18.14;31.49;100359.14;108107;1251;71551;-65
2023/03/17 01:39:06;;;;;;;3.60;1.50;;;;;;;18.02;31.62;100359.86;108260;1251;71920;-64
2023/03/17 01:42:00;;;;;;;4.00;2.00;;;;;;;18.15;31.44;100362.05;108274;1251;62532;-63
2023/03/17 01:44:28;;;;;;;2.80;1.90;;;;;;;18.26;31.25;100363.64;108308;1255;60465;-64
2023/03/17 01:46:59;;;;;;;2.60;1.50;;;;;;;18.18;31.29;100359.73;108327;1251;73795;-67
2023/03/17 01:49:31;;;;;;;2.50;1.80;;;;;;;18.12;31.33;100359.23;108173;1251;70968;-66
2023/03/17 01:52:04;;;;;;;2.30;1.80;;;;;;;17.85;31.74;100360.95;108104;1251;73791;-67
2023/03/17 01:54:37;;;;;;;4.80;1.80;;;;;;;17.89;31.66;100358.40;108227;1251;62095;-65
2023/03/17 01:57:09;;;;;;;3.60;1.70;;;;;;;17.80;31.86;100363.56;108207;1251;61197;-66
2023/03/17 01:59:41;;;;;;;5.10;1.90;;;;;;;17.94;31.70;100364.98;108113;1251;73830;-67
2023/03/17 02:02:10;;;;;;;4.70;1.80;;;;;;;18.02;31.48;100365.70;108382;1251;70234;-65
2023/03/17 02:04:39;;;;;;;3.00;1.90;;;;;;;17.92;31.54;100365.88;108173;1251;73644;-66
2023/03/17 02:07:08;;;;;;;6.40;1.90;;;;;;;17.77;31.78;100367.29;108304;1251;61282;-64
2023/03/17 02:09:41;;;;;;;3.80;1.90;;;;;;;17.67;31.99;100368.61;108170;1251;61341;-66
2023/03/17 02:12:14;;;;;;;4.60;2.00;;;;;;;17.64;32.03;100372.88;108327;1251;73485;-66
2023/03/17 02:14:43;;;;;;;3.90;2.20;;;;;;;17.64;32.01;100378.55;108228;1251;71308;-66
2023/03/17 02:17:17;;;;;;;3.20;1.60;;;;;;;17.73;31.88;100378.73;108099;1251;73553;-66
2023/03/17 02:19:46;;;;;;;3.70;1.90;;;;;;;17.92;31.66;100386.63;108272;1251;61219;-65
2023/03/17 02:22:16;;;;;;;4.20;2.00;;;;;;;17.94;31.64;100392.54;108341;1251;61028;-66
2023/03/17 02:24:54;;;;;;;5.30;2.90;;;;;;;17.76;31.87;100401.27;108311;1251;74627;-66
2023/03/17 02:27:34;;;;;;;2.70;1.70;;;;;;;17.78;31.76;100405.59;108338;1251;70405;-64
2023/03/17 02:30:05;;;;;;;3.90;2.10;;;;;;;17.48;32.33;100407.79;108332;1251;73028;-65
2023/03/17 02:32:35;;;;;;;3.10;2.10;;;;;;;17.85;31.78;100413.87;108135;1251;61909;-64
2023/03/17 02:35:09;;;;;;;3.20;2.00;;;;;;;17.87;31.64;100416.05;108321;1251;61566;-62
2023/03/17 02:37:37;;;;;;;2.90;2.00;;;;;;;17.80;31.78;100416.98;108308;1251;74206;-60
2023/03/17 02:40:07;;;;;;;2.30;1.70;;;;;;;17.58;32.04;100416.95;108295;1251;69627;-62
2023/03/17 02:42:38;;;;;;;6.70;2.20;;;;;;;17.67;31.97;100415.51;108273;1251;73539;-62
2023/03/17 02:45:07;;;;;;;3.70;1.90;;;;;;;17.84;31.86;100418.58;108282;1251;61998;-63
2023/03/17 02:47:41;;;;;;;2.20;1.70;;;;;;;17.88;31.73;100418.50;108176;1251;61137;-63
2023/03/17 02:50:21;;;;;;;2.20;1.80;;;;;;;18.23;31.30;100419.66;108338;1251;74056;-64
2023/03/17 02:52:50;;;;;;;3.90;1.90;;;;;;;18.20;31.32;100423.01;108196;1251;71265;-66
2023/03/17 02:55:18;;;;;;;3.80;2.10;;;;;;;18.11;31.35;100428.19;108133;1251;73515;-65
2023/03/17 02:57:46;;;;;;;2.80;2.00;;;;;;;18.12;31.35;100424.07;108358;1251;60364;-66
2023/03/17 03:00:20;;;;;;;5.40;2.00;;;;;;;18.21;31.16;100429.02;108333;1251;60809;-66
2023/03/17 03:02:49;;;;;;;3.90;1.80;;;;;;;18.22;31.17;100430.57;108387;1251;73989;-68
2023/03/17 03:05:22;;;;;;;4.40;2.00;;;;;;;18.23;31.26;100431.70;108368;1251;71463;-65
2023/03/17 03:07:52;;;;;;;3.00;2.00;;;;;;;18.12;31.39;100432.41;108222;1251;72687;-67
2023/03/17 03:10:20;;;;;;;3.50;1.80;;;;;;;18.14;31.36;100432.61;108246;1251;61285;-66
2023/03/17 03:12:52;;;;;;;5.40;2.30;;;;;;;18.26;31.23;100433.46;108247;1251;60339;-66
2023/03/17 03:15:21;;;;;;;3.90;2.10;;;;;;;18.22;31.18;100433.57;108297;1251;73693;-66
2023/03/17 03:17:50;;;;;;;4.00;2.00;;;;;;;18.28;31.15;100438.85;108227;1251;70026;-65
2023/03/17 03:20:20;;;;;;;3.20;2.10;;;;;;;17.94;31.50;100436.58;108282;1251;72982;-66
2023/03/17 03:22:51;;;;;;;3.00;1.80;;;;;;;17.48;32.00;100434.58;108287;1251;61854;-66
2023/03/17 03:25:20;;;;;;;3.80;2.10;;;;;;;17.35;32.28;100429.67;108277;1251;60362;-66
2023/03/17 03:27:49;;;;;;;5.00;2.30;;;;;;;17.52;32.11;100433.09;108364;1251;75202;-66
2023/03/17 03:30:18;;;;;;;2.50;1.90;;;;;;;17.56;32.09;100437.99;108349;1251;71766;-65
2023/03/17 03:32:46;;;;;;;3.20;2.20;;;;;;;17.71;31.98;100440.80;108325;1251;73298;-67
2023/03/17 03:35:15;;;;;;;3.90;2.10;;;;;;;17.72;31.98;100444.11;108386;1251;62183;-66
2023/03/17 03:37:49;;;;;;;5.90;2.20;;;;;;;17.73;31.93;100447.77;108358;1251;61444;-67
2023/03/17 03:40:17;;;;;;;4.00;2.00;;;;;;;17.60;32.16;100448.44;108337;1251;74043;-67
2023/03/17 03:42:45;;;;;;;3.60;2.30;;;;;;;17.40;32.36;100449.83;108129;1251;70557;-66
2023/03/17 03:45:14;;;;;;;4.30;2.20;;;;;;;17.42;32.29;100453.77;108231;1251;73874;-67
2023/03/17 03:47:43;;;;;;;5.10;2.30;;;;;;;17.48;32.20;100455.87;108235;1251;62513;-66
2023/03/17 03:50:14;;;;;;;5.00;2.40;;;;;;;17.70;32.09;100456.53;108242;1251;60684;-67
2023/03/17 03:52:44;;;;;;;2.80;2.10;;;;;;;18.13;31.49;100461.14;108382;1251;75089;-68
2023/03/17 03:55:12;;;;;;;2.50;2.10;;;;;;;18.05;31.52;100465.20;108301;1251;71304;-66
2023/03/17 03:57:41;;;;;;;3.20;2.20;;;;;;;17.56;32.09;100465.50;108093;1257;73884;-66
2023/03/17 04:00:12;;;;;;;4.90;2.20;;;;;;;17.55;32.22;100467.00;108128;1251;62044;-66
2023/03/17 04:02:43;;;;;;;3.10;2.10;;;;;;;17.64;32.01;100471.80;108325;1251;61471;-66
2023/03/17 04:05:13;;;;;;;;;;;;;;;17.89;31.76;100473.65;108339;1251;72904;-65
2023/03/17 04:07:44;;;;;;;3.30;2.00;;;;;;;17.97;31.67;100477.46;108104;1251;71566;-66
2023/03/17 04:10:14;;;;;;;3.50;2.00;;;;;;;17.92;31.70;100479.86;108164;1257;71956;-66
2023/03/17 04:12:42;;;;;;;2.20;2.00;;;;;;;17.93;31.71;100482.66;108296;1251;62441;-65
2023/03/17 04:15:15;;;;;;;4.70;1.80;;;;;;;17.71;31.96;100485.41;108165;1254;61095;-67
2023/03/17 04:17:44;;;;;;;4.20;2.40;;;;;;;17.68;32.05;100487.33;108116;1251;73952;-66
2023/03/17 04:20:13;;;;;;;4.10;2.40;;;;;;;17.94;31.75;100488.44;108282;1251;71466;-66
2023/03/17 04:22:41;;;;;;;3.90;2.20;;;;;;;18.09;31.53;100491.42;108282;1251;72685;-66
2023/03/17 04:25:10;;;;;;;3.90;2.00;;;;;;;17.96;31.66;100494.16;108141;1251;61368;-66
2023/03/17 04:27:39;;;;;;;3.20;2.60;;;;;;;17.97;31.56;100495.70;108135;1252;61225;-66
2023/03/17 04:30:12;;;;;;;2.40;2.20;;;;;;;17.78;31.99;100498.13;108305;1253;74790;-67
2023/03/17 04:32:40;;;;;;;;;;;;;;;17.90;31.76;100501.31;108303;1253;70832;-65
2023/03/17 04:35:17;;;;;;;2.00;1.70;;;;;;;17.86;31.82;100503.34;108054;1253;72634;-65
2023/03/17 04:37:48;;;;;;;2.90;2.20;;;;;;;17.91;31.82;100507.25;108216;1253;61218;-67
2023/03/17 04:40:16;;;;;;;3.90;2.20;;;;;;;17.95;31.74;100509.86;108166;1253;61304;-66
2023/03/17 04:42:45;;;;;;;5.10;2.30;;;;;;;17.79;31.80;100511.20;108184;1253;73863;-67
2023/03/17 04:45:15;;;;;;;3.70;2.30;;;;;;;17.62;32.07;100516.13;108225;1253;70750;-68
2023/03/17 04:47:45;;;;;;;5.10;2.00;;;;;;;17.46;32.29;100516.91;108224;1253;72334;-66
2023/03/17 04:50:14;;;;;;;2.30;2.10;;;;;;;17.83;32.02;100517.72;108217;1253;61093;-66
2023/03/17 04:52:43;;;;;;;2.90;2.10;;;;;;;17.87;31.78;100522.11;108241;1257;61271;-66
2023/03/17 04:55:12;;;;;;;2.20;2.00;;;;;;;17.67;32.12;100525.74;108272;1253;74154;-67
2023/03/17 04:57:40;;;;;;;2.50;2.20;;;;;;;17.65;32.12;100530.47;108275;1253;71621;-65
2023/03/17 05:00:11;;;;;;;2.90;2.10;;;;;;;17.75;31.94;100531.86;108299;1254;73899;-67
2023/03/17 05:02:40;;;;;;;2.70;1.80;;;;;;;17.68;32.11;100533.15;107989;1253;62269;-65
2023/03/17 05:05:12;;;;;;;4.60;2.30;;;;;;;17.78;32.02;100534.74;108211;1252;61394;-69
2023/03/17 05:07:41;;;;;;;3.40;2.20;;;;;;;17.89;31.83;100533.88;108147;1253;74688;-66
2023/03/17 05:10:11;;;;;;;3.20;2.50;;;;;;;17.78;31.91;100533.46;108129;1252;69917;-67
2023/03/17 05:12:40;;;;;;;3.40;2.10;;;;;;;17.82;31.93;100535.72;108302;1256;73896;-67
2023/03/17 05:15:10;;;;;;;3.70;2.10;;;;;;;17.88;31.90;100537.45;108254;1252;61923;-68
2023/03/17 05:17:38;;;;;;;4.40;2.10;;;;;;;18.01;31.79;100536.88;108236;1256;61380;-66
2023/03/17 05:20:09;;;;;;;2.50;2.10;;;;;;;18.05;31.69;100541.95;108219;1253;75081;-66
2023/03/17 05:22:38;;;;;;;3.30;1.80;;;;;;;18.39;31.28;100544.24;108221;1253;71216;-68
2023/03/17 05:25:08;;;;;;;4.10;2.00;;;;;;;18.39;31.28;100545.54;108201;1253;73503;-65
2023/03/17 05:27:36;;;;;;;4.20;2.10;;;;;;;18.34;31.36;100548.66;108205;1251;62761;-68
2023/03/17 05:30:05;;;;;;;2.50;2.00;;;;;;;18.36;31.41;100553.20;108303;1251;59200;-66
2023/03/17 05:32:35;;;;;;;2.30;2.10;;;;;;;18.30;31.37;100552.48;108129;1251;73593;-68
2023/03/17 05:35:04;;;;;;;2.10;1.90;;;;;;;18.30;31.45;100549.81;108271;1251;71291;-66
2023/03/17 05:37:33;;;;;;;4.50;2.10;;;;;;;18.23;31.49;100549.02;108268;1251;74139;-67
2023/03/17 05:40:01;;;;;;;2.70;2.00;;;;;;;18.22;31.46;100552.07;108278;1251;62419;-66
2023/03/17 05:42:30;;;;;;;3.00;2.00;;;;;;;18.20;31.53;100555.61;108331;1251;60839;-66
2023/03/17 05:44:58;;;;;;;3.00;2.10;;;;;;;18.10;31.63;100562.77;108345;1251;75167;-66
2023/03/17 05:47:32;;;;;;;5.70;2.40;;;;;;;17.95;31.87;100565.64;108284;1251;71171;-66
2023/03/17 05:50:03;;;;;;;3.80;2.30;;;;;;;17.89;31.90;100566.52;108314;1256;72684;-66
2023/03/17 05:52:32;;;;;;;2.80;2.30;;;;;;;17.60;32.39;100573.23;108130;1251;60728;-68
2023/03/17 05:55:03;;;;;;;3.40;2.30;;;;;;;17.65;32.30;100570.81;108258;1251;60588;-65
2023/03/17 05:57:31;;;;;;;3.80;2.40;;;;;;;17.59;32.51;100577.89;108365;1251;74816;-68
2023/03/17 05:59:59;;;;;;;3.70;2.50;;;;;;;18.02;32.03;100577.80;108317;1251;71518;-67
2023/03/17 06:02:28;;;;;;;2.20;1.90;;;;;;;18.30;31.71;100578.48;108321;1251;74450;-68
2023/03/17 06:04:56;;;;;;;3.00;2.20;;;;;;;18.47;31.48;100580.06;108298;1251;62096;-66
2023/03/17 06:07:28;;;;;;;3.60;2.60;;;;;;;18.16;31.73;100582.48;108333;1251;61021;-66
2023/03/17 06:10:11;;;;;;;3.20;2.10;;;;;;;18.28;31.67;100580.67;108329;1251;75070;-66
2023/03/17 06:12:39;;;;;;;3.30;2.20;;;;;;;18.42;31.48;100583.21;108311;1251;71280;-67
2023/03/17 06:15:09;;;;;;;2.80;2.20;;;;;;;18.42;31.44;100580.57;108270;1252;71751;-66
2023/03/17 06:17:38;;;;;;;3.40;2.40;;;;;;;18.57;31.33;100583.34;108284;1251;60445;-67
2023/03/17 06:20:10;;;;;;;5.20;2.50;;;;;;;18.49;31.35;100588.14;108291;1251;60457;-68
2023/03/17 06:22:39;;;;;;;4.90;2.30;;;;;;;18.44;31.57;100585.58;108311;1251;73218;-66
2023/03/17 06:25:27;;;;;;;2.60;2.20;;;;;;;18.51;31.40;100591.32;108356;1251;70616;-67
2023/03/17 06:27:56;;;;;;;4.00;2.60;;;;;;;18.14;31.88;100589.23;108336;1251;73430;-67
2023/03/17 06:30:25;;;;;;;3.50;2.10;;;;;;;18.29;31.74;100594.16;108348;1251;62077;-66
2023/03/17 06:33:00;;;;;;;2.90;2.30;;;;;;;18.30;31.64;100599.74;108307;1251;61344;-66
2023/03/17 06:35:29;;;;;;;2.50;2.10;;;;;;;18.68;31.31;100599.34;108218;1251;73800;-67
2023/03/17 06:37:59;;;;;;;4.30;2.60;;;;;;;18.68;31.30;100604.88;108318;1251;71528;-66
2023/03/17 06:40:28;;;;;;;3.80;2.20;;;;;;;18.73;31.19;100607.44;108361;1251;73509;-66
2023/03/17 06:42:57;;;;;;;2.70;2.50;;;;;;;18.54;31.34;100605.00;108355;1251;62505;-68
2023/03/17 06:45:36;;;;;;;2.40;2.20;;;;;;;18.39;31.50;100606.71;108350;1251;61550;-67
2023/03/17 06:48:05;;;;;;;2.70;2.30;;;;;;;18.31;31.62;100606.83;108362;1251;73297;-68
2023/03/17 06:50:34;;;;;;;3.10;2.40;;;;;;;18.42;31.51;100608.65;108350;1251;72048;-67
2023/03/17 06:53:04;;;;;;;3.80;2.80;;;;;;;18.51;31.45;100610.73;108293;1251;73612;-66
2023/03/17 06:55:33;;;;;;;2.40;2.10;;;;;;;18.65;31.36;100613.05;108319;1251;62459;-65
2023/03/17 06:58:05;;;;;;;5.60;2.50;;;;;;;18.73;31.17;100611.84;108302;1251;61157;-66
2023/03/17 07:00:37;;;;;;;3.00;2.30;;;;;;;18.65;31.32;100612.70;108054;1251;74858;-66
2023/03/17 07:03:05;;;;;;;4.00;2.50;;;;;;;18.66;31.28;100609.10;108252;1251;71290;-67
2023/03/17 07:05:34;;;;;;;3.30;2.50;;;;;;;18.70;31.30;100612.58;108162;1251;73369;-67
2023/03/17 07:08:02;;;;;;;2.40;2.10;;;;;;;18.74;31.15;100617.81;108353;1251;62250;-68
2023/03/17 07:10:32;;;;;;;2.90;2.30;;;;;;;18.72;31.12;100618.83;108234;1251;60315;-67
2023/03/17 07:13:16;;;;;;;3.70;2.60;;;;;;;18.85;31.13;100620.91;108033;1254;74283;-67
2023/03/17 07:15:45;;;;;;;3.00;2.40;;;;;;;18.81;31.20;100622.56;108081;1252;70975;-67
2023/03/17 07:18:19;;;;;;;3.60;2.20;;;;;;;18.74;31.23;100623.55;108089;1252;72662;-68
2023/03/17 07:20:48;;;;;;;2.70;2.30;;;;;;;18.84;30.98;100626.45;108125;1253;62113;-67
2023/03/17 07:23:19;;;;;;;2.50;2.10;;;;;;;18.84;30.99;100626.10;108052;1253;61582;-67
2023/03/17 07:25:47;;;;;;;3.90;2.20;;;;;;;18.53;31.38;100623.61;108105;1253;74796;-67
2023/03/17 07:28:20;;;;;;;6.20;2.20;;;;;;;18.64;31.32;100631.27;108066;1253;71391;-67
2023/03/17 07:30:51;;;;;;;2.30;2.10;;;;;;;18.87;31.11;100629.31;108031;1253;73835;-69
2023/03/17 07:33:20;;;;;;;5.40;2.30;;;;;;;19.07;30.83;100633.34;108065;1253;61041;-66
2023/03/17 07:35:49;;;;;;;3.80;2.20;;;;;;;18.99;30.93;100636.00;108148;1253;61498;-66
2023/03/17 07:38:18;;;;;;;3.00;2.20;;;;;;;19.04;30.93;100640.32;108135;1253;75059;-66
2023/03/17 07:40:47;;;;;;;3.40;2.50;;;;;;;19.14;30.90;100635.73;108121;1253;70612;-66
2023/03/17 07:43:18;;;;;;;4.00;2.40;;;;;;;19.33;30.73;100642.38;108152;1253;72642;-67
2023/03/17 07:45:46;;;;;;;4.60;2.60;;;;;;;19.22;30.82;100641.49;107929;1253;62246;-67
2023/03/17 07:48:17;;;;;;;3.00;2.00;;;;;;;19.17;30.85;100642.51;108196;1257;59102;-68
2023/03/17 07:50:47;;;;;;;2.10;1.80;;;;;;;19.18;30.89;100644.59;108307;1252;74209;-67
2023/03/17 07:53:19;;;;;;;3.10;2.40;;;;;;;19.20;30.85;100646.61;108126;1253;71381;-65
2023/03/17 07:55:48;;;;;;;4.90;2.50;;;;;;;19.31;30.80;100655.15;108096;1253;73700;-65
2023/03/17 07:58:20;;;;;;;2.90;2.20;;;;;;;19.14;31.01;100651.41;108169;1253;62736;-65
2023/03/17 08:00:52;;;;;;;3.30;2.20;;;;;;;19.50;30.74;100652.64;108092;1252;60364;-67
2023/03/17 08:03:21;;;;;;;3.30;2.60;;;;;;;19.57;30.53;100651.52;108110;1253;74357;-67
2023/03/17 08:05:52;;;;;;;2.60;2.40;;;;;;;19.54;30.51;100651.83;108093;1253;71481;-66
2023/03/17 08:08:26;;;;;;;2.90;2.20;;;;;;;19.46;30.61;100661.11;108057;1252;71579;-66
2023/03/17 08:11:02;;;;;;;3.80;2.40;;;;;;;19.29;30.65;100664.30;108079;1252;62101;-68
2023/03/17 08:13:31;;;;;;;2.90;2.40;;;;;;;19.52;30.42;100664.08;108042;1258;60674;-66
2023/03/17 08:16:00;;;;;;;5.30;2.50;;;;;;;19.54;30.41;100663.39;108059;1253;75424;-68
2023/03/17 08:18:29;;;;;;;2.80;2.00;;;;;;;19.43;30.67;100666.78;108059;1252;70324;-65
2023/03/17 08:20:58;;;;;;;3.60;2.40;;;;;;;19.22;30.81;100669.23;108092;1253;73911;-67
2023/03/17 08:23:26;;;;;;;3.60;2.20;;;;;;;19.23;30.90;100667.20;108150;1253;62138;-67
2023/03/17 08:25:56;;;;;;;4.80;2.10;;;;;;;19.15;30.93;100666.30;108091;1253;61276;-67
2023/03/17 08:28:24;;;;;;;4.70;2.50;;;;;;;19.21;30.86;100670.02;108027;1253;73540;-66
2023/03/17 08:30:53;;;;;;;2.70;2.10;;;;;;;19.31;30.78;100667.95;108166;1253;71204;-66
2023/03/17 08:33:22;;;;;;;3.70;2.30;;;;;;;19.72;30.47;100669.54;108081;1252;73732;-67
2023/03/17 08:35:50;;;;;;;4.20;2.20;;;;;;;19.95;30.26;100671.42;107861;1253;61261;-67
2023/03/17 08:38:19;;;;;;;4.90;2.10;;;;;;;19.83;30.40;100671.86;108142;1252;61046;-67
2023/03/17 08:40:49;;;;;;;2.20;1.90;;;;;;;19.60;30.68;100673.39;108000;1252;74812;-68
2023/03/17 08:43:17;;;;;;;2.00;1.60;;;;;;;19.79;30.24;100676.89;108075;1253;71051;-68
2023/03/17 08:45:46;;;;;;;2.30;1.90;;;;;;;20.14;29.74;100675.14;108061;1253;73920;-68
2023/03/17 08:48:16;;;;;;;2.50;2.20;;;;;;;19.92;29.89;100678.23;107846;1253;62498;-68
2023/03/17 08:50:44;;;;;;;3.00;2.20;;;;;;;20.08;29.69;100676.02;108063;1253;61307;-68
2023/03/17 08:53:13;;;;;;;4.30;1.80;;;;;;;20.12;29.62;100680.41;108112;1253;75150;-68
2023/03/17 08:55:42;;;;;;;2.70;1.90;;;;;;;19.82;29.88;100681.73;108144;1253;69625;-68
2023/03/17 08:58:11;;;;;;;1.90;1.70;;;;;;;19.90;29.75;100682.81;108107;1253;73728;-68
2023/03/17 09:00:40;;;;;;;2.80;1.90;;;;;;;20.04;29.65;100683.29;108089;1253;62307;-68
2023/03/17 09:03:08;;;;;;;3.90;1.70;;;;;;;20.18;29.42;100685.52;108112;1252;60909;-68
2023/03/17 09:05:36;;;;;;;3.90;2.30;;;;;;;20.22;29.50;100682.78;108080;1253;74807;-67
2023/03/17 09:08:08;;;;;;;2.80;2.00;;;;;;;19.97;29.78;100684.11;108264;1253;72060;-67
2023/03/17 09:10:36;;;;;;;2.60;1.80;;;;;;;19.82;30.05;100684.73;108150;1253;73571;-67
2023/03/17 09:13:07;;;;;;;3.00;2.00;;;;;;;20.00;29.85;100681.77;108055;1253;60336;-67
2023/03/17 09:15:37;;;;;;;3.40;1.90;;;;;;;19.80;29.79;100680.57;108126;1253;59666;-67
2023/03/17 09:18:06;;;;;;;3.10;1.60;;;;;;;19.88;29.72;100682.36;108043;1253;74779;-66
2023/03/17 09:20:36;;;;;;;2.80;1.80;;;;;;;20.10;29.50;100685.75;108130;1252;71209;-67
2023/03/17 09:23:06;;;;;;;2.70;1.80;;;;;;;20.27;29.34;100687.23;108018;1253;72947;-68
2023/03/17 09:25:36;;;;;;;1.90;1.60;;;;;;;20.42;29.19;100683.52;108151;1253;62128;-68
2023/03/17 09:28:06;;;;;;;5.00;1.80;;;;;;;20.07;29.26;100695.89;108184;1253;59374;-67
2023/03/17 09:30:34;;;;;;;4.60;1.90;;;;;;;20.00;29.52;100699.61;108101;1253;74690;-67
2023/03/17 09:33:03;;;;;;;2.10;1.80;;;;;;;20.06;29.42;100698.98;108087;1252;71162;-67
2023/03/17 09:35:33;;;;;;;4.70;1.70;;;;;;;19.93;29.68;100700.05;108121;1253;73820;-67
2023/03/17 09:38:01;;;;;;;3.80;1.90;;;;;;;20.23;29.29;100701.92;108072;1253;62160;-67
2023/03/17 09:40:32;;;;;;;3.20;2.00;;;;;;;20.00;29.61;100703.68;108194;1253;60664;-67
2023/03/17 09:43:31;;;;;;;3.30;1.80;;;;;;;20.17;29.41;100705.00;108157;1253;74882;-68
2023/03/17 09:46:13;;;;;;;5.20;2.10;;;;;;;19.93;29.71;100709.86;108050;1253;70341;-67
2023/03/17 09:48:58;;;;;;;1.70;1.40;;;;;;;20.16;29.55;100710.64;108071;1253;73658;-65
2023/03/17 09:51:41;;;;;;;3.10;1.50;;;;;;;20.63;28.90;100706.14;108090;1253;61202;-67
2023/03/17 09:54:14;;;;;;;3.00;1.70;;;;;;;20.54;28.94;100713.90;108134;1253;60443;-65
2023/03/17 09:56:46;;;;;;;4.30;2.00;;;;;;;20.30;29.23;100714.46;108125;1252;73452;-67
2023/03/17 09:59:41;;;;;;;5.50;1.80;;;;;;;20.54;28.92;100712.67;108108;1253;71336;-68
2023/03/17 10:02:16;;;;;;;2.80;1.60;;;;;;;20.49;28.74;100714.80;108030;1253;72826;-65
2023/03/17 10:04:46;;;;;;;3.90;2.20;;;;;;;20.49;28.78;100716.55;108121;1253;60562;-67
2023/03/17 10:07:18;;;;;;;2.20;1.80;;;;;;;20.54;28.81;100714.59;108107;1253;60361;-67
2023/03/17 10:10:04;;;;;;;6.00;2.10;;;;;;;20.50;28.79;100716.86;108084;1253;75295;-67
2023/03/17 10:13:16;;;;;;;2.30;1.90;;;;;;;19.95;29.57;100719.89;108104;1253;70300;-67
2023/03/17 10:16:02;;;;;;;3.30;1.80;;;;;;;20.23;29.27;100723.70;108053;1253;71759;-67
2023/03/17 10:19:12;;;;;;;2.90;1.60;;;;;;;20.44;28.98;100721.02;108001;1258;62167;-69
2023/03/17 10:21:47;;;;;;;2.30;1.50;;;;;;;20.57;28.99;100717.27;107472;1261;60505;-68
2023/03/17 10:24:16;;;;;;;2.80;2.10;;;;;;;20.65;28.96;100716.53;108075;1253;74853;-67
2023/03/17 10:26:52;;;;;;;2.90;1.80;;;;;;;20.70;28.93;100720.65;108151;1253;70767;-68
2023/03/17 10:29:22;;;;;;;3.10;1.90;;;;;;;20.54;28.94;100719.80;108065;1256;72962;-67
2023/03/17 10:31:52;;;;;;;1.70;1.60;;;;;;;20.41;29.03;100719.64;108204;1254;62019;-66
2023/03/17 10:34:27;;;;;;;4.40;2.00;;;;;;;20.28;29.19;100722.11;108128;1257;60798;-67
2023/03/17 10:37:08;;;;;;;4.60;1.90;;;;;;;20.43;28.96;100722.02;108123;1254;74798;-67
2023/03/17 10:39:45;;;;;;;2.70;1.90;;;;;;;20.38;29.16;100720.88;108127;1254;71247;-67
2023/03/17 10:42:28;;;;;;;2.10;1.60;;;;;;;20.59;28.90;100722.52;108144;1254;173932;-67
2023/03/17 10:46:25;;;;;;;4.10;2.00;;;;;;;15.99;35.32;100737.01;104992;1289;601115;-67
2023/03/17 10:49:01;;;;;;;2.70;2.00;;;;;;;17.89;32.38;100727.11;107410;1265;60761;-68
2023/03/17 10:51:35;;;;;;;4.00;2.00;;;;;;;18.23;31.89;100732.08;107377;1268;60455;-68
2023/03/17 10:54:14;;;;;;;3.10;2.20;;;;;;;18.54;31.57;100731.98;107384;1264;72347;-67
2023/03/17 10:56:42;;;;;;;3.60;2.10;;;;;;;18.90;31.17;100735.69;107360;1269;70302;-68
2023/03/17 10:59:36;;;;;;;2.30;1.80;;;;;;;19.17;30.80;100734.00;107412;1260;200532;-65
2023/03/17 11:02:11;;;;;;;2.00;1.40;;;;;;;19.37;30.49;100737.52;107769;1258;61429;-67
2023/03/17 11:04:42;;;;;;;2.60;1.70;;;;;;;19.40;30.35;100736.44;107735;1258;61051;-66
2023/03/17 11:07:16;;;;;;;2.70;1.90;;;;;;;19.43;30.37;100743.52;107609;1263;73219;-67
2023/03/17 11:09:49;;;;;;;2.60;2.00;;;;;;;19.54;30.29;100745.90;107811;1263;70099;-66
2023/03/17 11:12:36;;;;;;;3.00;1.70;;;;;;;19.76;30.07;100743.02;107723;1258;72687;-68
2023/03/17 11:15:08;;;;;;;2.90;2.00;;;;;;;19.76;29.98;100742.87;107723;1261;62052;-66
2023/03/17 11:17:46;;;;;;;2.40;1.70;;;;;;;19.77;29.86;100745.11;107734;1259;59516;-67
2023/03/17 11:20:17;;;;;;;9.00;2.10;;;;;;;19.75;29.97;100743.25;107715;1260;74007;-65
2023/03/17 11:23:03;;;;;;;3.50;2.00;;;;;;;19.93;29.76;100746.02;107737;1260;71264;-67
2023/03/17 11:25:33;;;;;;;7.10;1.90;;;;;;;19.98;29.73;100746.26;107712;1260;73904;-68
2023/03/17 11:28:15;;;;;;;2.40;1.90;;;;;;;20.43;29.16;100748.39;107603;1258;61279;-67
2023/03/17 11:31:11;;;;;;;12.40;1.90;;;;;;;20.04;29.46;100751.69;107687;1259;60362;-67
2023/03/17 11:34:18;;;;;;;2.50;1.90;;;;;;;20.14;29.47;100752.46;107517;1264;73829;-67
2023/03/17 11:37:12;;;;;;;3.20;2.10;;;;;;;20.27;29.30;100750.55;107689;1261;71394;-67
2023/03/17 11:40:02;;;;;;;3.30;1.90;;;;;;;20.08;29.58;100753.55;107626;1261;73549;-66